Terminal Aerodrome Forecast
Issued by NWS

Home | Current Version | Previous Version | Text Only | Print | Product List | Glossary On
Versions: 1 2 3 4 5 6 7 8 9 10 11 12 13 14 15 16
000
FTUS42 TJSJ 051731
TAFJSJ
TAF
TJSJ 051731Z 0518/0618 10011KT P6SM VCSH SCT030 SCT050
     FM052330 12004KT P6SM FEW030 SCT080
     FM060600 14002KT P6SM VCSH SCT025 BKN050
     FM061400 10008KT P6SM SCT030 SCT070=

USA.gov is the U.S. government's official web portal to all federal, state and local government web resources and services.